createdAt,value
2019-02-28T00:01:50.010Z,47.47
2019-02-28T00:04:15.556Z,45.97
2019-02-28T00:06:43.979Z,49.60
2019-02-28T00:09:08.564Z,55.50
2019-02-28T00:11:36.086Z,43.07
2019-02-28T00:14:03.582Z,49.00
2019-02-28T00:16:29.282Z,48.27
2019-02-28T00:18:55.959Z,45.60
2019-02-28T00:21:21.503Z,49.00
2019-02-28T00:23:47.029Z,56.10
2019-02-28T00:26:12.554Z,49.50
2019-02-28T00:28:38.071Z,50.03
2019-02-28T00:31:03.802Z,53.00
2019-02-28T00:33:30.893Z,49.43
2019-02-28T00:35:56.948Z,50.10
2019-02-28T00:38:22.503Z,55.10
2019-02-28T00:40:48.051Z,49.90
2019-02-28T00:43:13.656Z,49.70
2019-02-28T00:45:39.174Z,49.40
2019-02-28T00:48:04.712Z,55.93
2019-02-28T00:50:30.241Z,58.13
2019-02-28T00:52:55.895Z,54.30
2019-02-28T00:55:21.432Z,59.87
2019-02-28T00:57:47.554Z,60.67
2019-02-28T01:00:18.125Z,61.83
2019-02-28T01:02:43.641Z,62.77
2019-02-28T01:05:09.184Z,64.77
2019-02-28T01:07:34.793Z,61.67
2019-02-28T01:10:01.331Z,71.93
2019-02-28T01:12:27.812Z,63.97
2019-02-28T01:14:53.374Z,67.37
2019-02-28T01:17:18.900Z,67.20
2019-02-28T01:19:44.498Z,61.60
2019-02-28T01:22:10.023Z,69.30
2019-02-28T01:24:35.544Z,66.40
2019-02-28T01:27:01.759Z,64.83
2019-02-28T01:29:27.307Z,68.87
2019-02-28T01:31:52.867Z,69.00
2019-02-28T01:34:18.547Z,68.80
2019-02-28T01:36:45.903Z,71.07
2019-02-28T01:39:21.667Z,71.40
2019-02-28T01:41:49.164Z,72.07
2019-02-28T01:44:14.755Z,69.80
2019-02-28T01:46:40.343Z,73.00
2019-02-28T01:49:05.897Z,85.40
2019-02-28T01:51:35.720Z,75.50
2019-02-28T01:53:58.895Z,73.13
2019-02-28T01:56:24.442Z,71.30
2019-02-28T01:58:50.389Z,69.63
2019-02-28T02:01:16.619Z,67.50
2019-02-28T02:03:42.182Z,73.67
2019-02-28T02:06:07.704Z,73.27
2019-02-28T02:08:33.614Z,72.87
2019-02-28T02:10:59.431Z,73.23
2019-02-28T02:13:25.014Z,77.47
2019-02-28T02:15:51.455Z,73.10
2019-02-28T02:18:17.756Z,78.00
2019-02-28T02:20:43.385Z,79.47
2019-02-28T02:23:09.895Z,76.93
2019-02-28T02:25:37.523Z,80.40
2019-02-28T02:28:02.883Z,76.07
2019-02-28T02:30:28.401Z,76.00
2019-02-28T02:32:54.115Z,77.10
2019-02-28T02:35:19.876Z,83.63
2019-02-28T02:37:45.414Z,80.33
2019-02-28T02:40:12.011Z,75.93
2019-02-28T02:42:37.567Z,72.33
2019-02-28T02:45:05.613Z,70.60
2019-02-28T02:47:32.616Z,82.13
2019-02-28T02:49:58.222Z,75.07
2019-02-28T02:52:29.960Z,78.73
2019-02-28T02:54:52.896Z,72.83
2019-02-28T02:57:18.667Z,80.00
2019-02-28T02:59:44.232Z,77.00
2019-02-28T03:02:09.780Z,86.70
2019-02-28T03:04:35.575Z,83.50
2019-02-28T03:07:01.116Z,78.80
2019-02-28T03:09:26.706Z,83.30
2019-02-28T03:11:52.368Z,79.83
2019-02-28T03:14:17.896Z,83.80
2019-02-28T03:16:43.423Z,75.70
2019-02-28T03:19:09.274Z,77.93
2019-02-28T03:21:34.819Z,86.93
2019-02-28T03:24:00.369Z,82.70
2019-02-28T03:26:25.918Z,84.17
2019-02-28T03:28:51.441Z,85.43
2019-02-28T03:31:19.055Z,85.43
2019-02-28T03:33:44.653Z,95.37
2019-02-28T03:36:10.223Z,89.60
2019-02-28T03:38:35.855Z,84.53
2019-02-28T03:41:01.379Z,92.73
2019-02-28T03:43:26.895Z,98.70
2019-02-28T03:45:52.837Z,95.43
2019-02-28T03:48:18.468Z,95.83
2019-02-28T03:50:43.995Z,92.97
2019-02-28T03:53:09.621Z,99.03
2019-02-28T03:55:40.068Z,95.07
2019-02-28T03:58:05.463Z,95.40
2019-02-28T04:00:33.957Z,86.13
2019-02-28T04:02:59.064Z,94.50
2019-02-28T04:05:28.036Z,96.70
2019-02-28T04:07:54.786Z,94.07
2019-02-28T04:10:22.087Z,91.30
2019-02-28T04:12:48.109Z,99.40
2019-02-28T04:15:15.550Z,89.00
2019-02-28T04:17:42.227Z,94.20
2019-02-28T04:20:08.075Z,106.27
2019-02-28T04:22:33.655Z,106.23
2019-02-28T04:24:59.175Z,99.80
2019-02-28T04:27:24.718Z,88.87
2019-02-28T04:29:50.252Z,89.70
2019-02-28T04:32:15.776Z,99.93
2019-02-28T04:34:41.409Z,97.17
2019-02-28T04:37:08.593Z,95.80
2019-02-28T04:39:34.391Z,97.00
2019-02-28T04:41:59.923Z,97.80
2019-02-28T04:44:25.535Z,98.50
2019-02-28T04:46:51.055Z,101.07
2019-02-28T04:49:21.741Z,96.83
2019-02-28T04:51:44.063Z,103.47
2019-02-28T04:54:09.610Z,91.77
2019-02-28T04:56:35.141Z,104.67
2019-02-28T04:59:00.692Z,94.03
2019-02-28T05:01:26.261Z,106.60
2019-02-28T05:03:52.756Z,95.30
2019-02-28T05:06:21.153Z,103.33
2019-02-28T05:08:45.875Z,98.57
2019-02-28T05:11:11.430Z,107.83
2019-02-28T05:13:36.996Z,106.50
2019-02-28T05:16:02.535Z,97.00
2019-02-28T05:18:28.248Z,94.70
2019-02-28T05:20:54.331Z,107.00
2019-02-28T05:23:19.854Z,107.03
2019-02-28T05:25:45.379Z,104.07
2019-02-28T05:28:11.019Z,101.30
2019-02-28T05:30:36.530Z,115.03
2019-02-28T05:33:02.053Z,102.00
2019-02-28T05:35:27.575Z,100.13
2019-02-28T05:37:53.123Z,96.93
2019-02-28T05:40:18.627Z,99.23
2019-02-28T05:42:44.191Z,95.10
2019-02-28T05:45:11.368Z,100.00
2019-02-28T05:47:46.212Z,106.70
2019-02-28T05:50:06.434Z,105.43
2019-02-28T05:52:33.729Z,104.33
2019-02-28T05:55:00.707Z,103.83
2019-02-28T05:57:25.883Z,97.30
2019-02-28T05:59:51.112Z,99.17
2019-02-28T06:02:18.880Z,101.43
2019-02-28T06:04:43.519Z,99.43
2019-02-28T06:07:09.418Z,106.87
2019-02-28T06:09:34.761Z,107.23
2019-02-28T06:12:00.538Z,101.00
2019-02-28T06:14:27.755Z,104.00
2019-02-28T06:16:53.586Z,111.73
2019-02-28T06:19:20.365Z,112.27
2019-02-28T06:21:46.003Z,107.97
2019-02-28T06:24:12.750Z,109.80
2019-02-28T06:26:39.009Z,112.03
2019-02-28T06:29:05.720Z,117.47
2019-02-28T06:31:32.030Z,108.37
2019-02-28T06:33:57.575Z,104.53
2019-02-28T06:36:25.685Z,113.00
2019-02-28T06:38:51.463Z,115.47
2019-02-28T06:41:18.059Z,118.63
2019-02-28T06:43:44.306Z,114.17
2019-02-28T06:46:10.034Z,112.17
2019-02-28T06:48:35.664Z,122.57
2019-02-28T06:51:01.323Z,122.73
2019-02-28T06:53:31.058Z,119.27
2019-02-28T06:55:56.029Z,113.00
2019-02-28T06:58:21.863Z,123.47
2019-02-28T07:00:48.412Z,121.20
2019-02-28T07:03:14.826Z,133.17
2019-02-28T07:05:40.626Z,134.83
2019-02-28T07:08:06.881Z,130.73
2019-02-28T07:10:32.408Z,142.50
2019-02-28T07:12:57.935Z,137.70
2019-02-28T07:15:24.901Z,141.60
2019-02-28T07:17:50.557Z,132.43
2019-02-28T07:20:16.775Z,138.33
2019-02-28T07:22:42.531Z,143.97
2019-02-28T07:25:09.460Z,146.00
2019-02-28T07:27:36.221Z,174.63
2019-02-28T07:30:02.744Z,151.90
2019-02-28T07:32:31.234Z,146.17
2019-02-28T07:34:58.164Z,144.67
2019-02-28T07:37:23.425Z,149.07
2019-02-28T07:39:48.950Z,140.80
2019-02-28T07:42:14.659Z,157.50
2019-02-28T07:44:40.223Z,159.50
2019-02-28T07:47:05.979Z,154.90
2019-02-28T07:49:35.852Z,154.50
2019-02-28T07:51:58.985Z,144.43
2019-02-28T07:54:24.762Z,144.30
2019-02-28T07:56:50.411Z,132.30
2019-02-28T07:59:15.962Z,149.23
2019-02-28T08:01:41.539Z,151.80
2019-02-28T08:04:07.145Z,142.97
2019-02-28T08:06:32.675Z,133.20
2019-02-28T08:08:58.211Z,161.40
2019-02-28T08:11:23.719Z,143.80
2019-02-28T08:13:50.222Z,144.33
2019-02-28T08:16:15.769Z,148.30
2019-02-28T08:18:41.299Z,158.60
2019-02-28T08:21:08.721Z,164.93
2019-02-28T08:23:34.271Z,168.70
2019-02-28T08:25:59.831Z,143.73
2019-02-28T08:28:25.355Z,149.90
2019-02-28T08:30:54.745Z,146.17
2019-02-28T08:33:18.451Z,152.73
2019-02-28T08:35:44.011Z,142.30
2019-02-28T08:38:09.531Z,146.03
2019-02-28T08:40:35.082Z,129.03
2019-02-28T08:43:00.612Z,144.73
2019-02-28T08:45:26.190Z,122.90
2019-02-28T08:47:55.250Z,121.93
2019-02-28T08:50:23.442Z,129.17
2019-02-28T08:52:50.042Z,118.10
2019-02-28T08:55:15.561Z,138.57
2019-02-28T08:57:41.207Z,135.23
2019-02-28T09:00:08.648Z,125.80
2019-02-28T09:02:34.648Z,130.67
2019-02-28T09:05:00.367Z,117.50
2019-02-28T09:07:25.999Z,107.20
2019-02-28T09:09:51.532Z,125.80
2019-02-28T09:12:17.127Z,111.67
2019-02-28T09:14:42.699Z,107.20
2019-02-28T09:17:08.425Z,102.60
2019-02-28T09:19:36.147Z,100.07
2019-02-28T09:22:01.420Z,98.17
2019-02-28T09:24:27.055Z,91.77
2019-02-28T09:26:52.626Z,91.57
2019-02-28T09:29:18.341Z,73.40
2019-02-28T09:31:45.582Z,87.13
2019-02-28T09:34:11.246Z,71.40
2019-02-28T09:36:36.766Z,82.63
2019-02-28T09:39:04.095Z,73.80
2019-02-28T09:41:30.522Z,71.03
2019-02-28T09:43:56.889Z,74.87
2019-02-28T09:46:23.766Z,65.03
2019-02-28T09:48:49.313Z,63.70
2019-02-28T09:51:14.883Z,56.53
2019-02-28T09:53:40.425Z,56.13
2019-02-28T09:56:08.905Z,63.67
2019-02-28T09:58:33.423Z,53.17
2019-02-28T10:00:59.055Z,48.10
2019-02-28T10:03:24.580Z,58.67
2019-02-28T10:05:50.108Z,58.10
2019-02-28T10:08:15.748Z,47.97
2019-02-28T10:10:41.303Z,52.30
2019-02-28T10:13:06.835Z,55.87
2019-02-28T10:15:32.364Z,64.30
2019-02-28T10:18:00.768Z,54.63
2019-02-28T10:20:28.493Z,55.07
2019-02-28T10:22:54.673Z,57.97
2019-02-28T10:25:20.383Z,51.93
2019-02-28T10:27:46.031Z,51.03
2019-02-28T10:30:15.776Z,52.87
2019-02-28T10:32:43.376Z,57.70
2019-02-28T10:35:08.280Z,55.07
2019-02-28T10:37:35.594Z,44.70
2019-02-28T10:40:01.383Z,56.37
2019-02-28T10:42:26.935Z,55.90
2019-02-28T10:44:52.491Z,52.33
2019-02-28T10:47:18.113Z,49.53
2019-02-28T10:49:43.718Z,55.27
2019-02-28T10:52:09.279Z,49.80
2019-02-28T10:54:34.845Z,43.93
2019-02-28T10:57:03.019Z,45.17
2019-02-28T10:59:28.315Z,46.70
2019-02-28T11:01:53.974Z,48.33
2019-02-28T11:04:19.673Z,46.70
2019-02-28T11:06:46.809Z,45.30
2019-02-28T11:09:14.542Z,43.93
2019-02-28T11:11:42.595Z,49.83
2019-02-28T11:14:08.875Z,56.50
2019-02-28T11:16:36.097Z,54.53
2019-02-28T11:19:01.831Z,51.53
2019-02-28T11:21:29.744Z,50.93
2019-02-28T11:23:55.087Z,52.67
2019-02-28T11:26:20.648Z,54.37
2019-02-28T11:28:46.270Z,55.43
2019-02-28T11:31:12.223Z,51.20
2019-02-28T11:33:39.539Z,49.83
2019-02-28T11:36:05.203Z,50.97
2019-02-28T11:38:30.781Z,48.20
2019-02-28T11:40:57.517Z,47.30
2019-02-28T11:43:23.371Z,46.37
2019-02-28T11:45:49.547Z,44.80
2019-02-28T11:48:20.115Z,54.63
2019-02-28T11:50:44.962Z,47.90
2019-02-28T11:53:10.699Z,52.07
2019-02-28T11:55:36.232Z,55.73
2019-02-28T11:58:01.891Z,51.87
2019-02-28T12:00:32.606Z,61.07
2019-02-28T12:03:00.719Z,56.73
2019-02-28T12:05:25.472Z,46.00
2019-02-28T12:07:51.160Z,52.23
2019-02-28T12:10:17.058Z,50.43
2019-02-28T12:12:44.688Z,50.63
2019-02-28T12:15:11.974Z,54.53
2019-02-28T12:17:37.518Z,61.57
2019-02-28T12:20:06.031Z,72.13
2019-02-28T12:22:31.666Z,57.00
2019-02-28T12:24:57.204Z,67.67
2019-02-28T12:27:24.421Z,54.50
2019-02-28T12:29:50.567Z,59.87
2019-02-28T12:32:16.107Z,52.93
2019-02-28T12:34:41.667Z,54.20
2019-02-28T12:37:07.224Z,41.47
2019-02-28T12:39:33.373Z,41.10
2019-02-28T12:42:00.395Z,48.93
2019-02-28T12:44:26.104Z,61.30
2019-02-28T12:46:52.701Z,47.43
2019-02-28T12:49:21.838Z,67.97
2019-02-28T12:51:45.811Z,59.37
2019-02-28T12:54:11.355Z,64.80
2019-02-28T12:56:37.015Z,55.67
2019-02-28T12:59:02.649Z,51.53
2019-02-28T13:01:28.224Z,49.27
2019-02-28T13:03:57.756Z,51.43
2019-02-28T13:06:23.742Z,50.00
2019-02-28T13:08:48.647Z,40.20
2019-02-28T13:11:14.191Z,46.30
2019-02-28T13:13:40.825Z,34.13
2019-02-28T13:16:06.359Z,42.17
2019-02-28T13:18:32.212Z,49.67
2019-02-28T13:20:57.737Z,63.63
2019-02-28T13:23:23.331Z,58.30
2019-02-28T13:25:49.881Z,59.53
2019-02-28T13:28:18.164Z,68.23
2019-02-28T13:30:49.315Z,61.67
2019-02-28T13:33:11.103Z,70.03
2019-02-28T13:35:45.657Z,61.63
2019-02-28T13:38:07.099Z,67.07
2019-02-28T13:40:32.664Z,58.30
2019-02-28T13:42:58.363Z,66.07
2019-02-28T13:45:24.228Z,60.60
2019-02-28T13:47:49.770Z,48.83
2019-02-28T13:50:32.585Z,62.40
2019-02-28T13:53:03.641Z,70.47
2019-02-28T13:55:25.882Z,67.67
2019-02-28T13:57:51.462Z,60.63
2019-02-28T14:00:24.597Z,46.47
2019-02-28T14:02:51.225Z,53.43
2019-02-28T14:05:16.851Z,46.63
2019-02-28T14:07:42.744Z,58.03
2019-02-28T14:10:11.518Z,56.90
2019-02-28T14:12:37.483Z,50.00
2019-02-28T14:15:04.251Z,57.17
2019-02-28T14:17:32.537Z,45.03
2019-02-28T14:19:57.719Z,38.43
2019-02-28T14:22:24.379Z,49.23
2019-02-28T14:24:50.085Z,50.47
2019-02-28T14:27:15.760Z,53.83
2019-02-28T14:29:43.019Z,45.27
2019-02-28T14:32:08.941Z,52.03
2019-02-28T14:34:34.499Z,50.70
2019-02-28T14:37:00.083Z,49.00
2019-02-28T14:39:25.668Z,50.03
2019-02-28T14:41:51.299Z,55.90
2019-02-28T14:44:17.869Z,60.97
2019-02-28T14:46:43.411Z,53.13
2019-02-28T14:49:12.588Z,51.23
2019-02-28T14:51:36.609Z,60.03
2019-02-28T14:54:02.285Z,44.83
2019-02-28T14:56:27.894Z,48.67
2019-02-28T14:58:56.081Z,40.67
2019-02-28T15:01:20.889Z,36.07
2019-02-28T15:03:47.444Z,40.23
2019-02-28T15:06:12.992Z,41.80
2019-02-28T15:08:38.527Z,38.93
2019-02-28T15:11:06.441Z,42.10
2019-02-28T15:13:33.484Z,45.33
2019-02-28T15:15:59.236Z,42.40
2019-02-28T15:18:26.776Z,44.60
2019-02-28T15:20:52.524Z,46.23
2019-02-28T15:23:18.095Z,38.07
2019-02-28T15:25:43.651Z,44.10
2019-02-28T15:28:10.721Z,35.60
2019-02-28T15:30:37.655Z,44.17
2019-02-28T15:33:03.307Z,43.10
2019-02-28T15:35:29.021Z,28.60
2019-02-28T15:37:54.642Z,33.87
2019-02-28T15:40:21.543Z,45.13
2019-02-28T15:42:48.870Z,43.93
2019-02-28T15:45:14.530Z,32.37
2019-02-28T15:47:40.047Z,41.03
2019-02-28T15:50:07.421Z,37.57
2019-02-28T15:52:33.348Z,38.10
2019-02-28T15:55:02.156Z,41.50
2019-02-28T15:57:26.842Z,41.43
2019-02-28T15:59:54.046Z,35.77
2019-02-28T16:02:19.680Z,43.80
2019-02-28T16:04:45.328Z,40.00
2019-02-28T16:07:11.118Z,43.13
2019-02-28T16:09:36.655Z,35.17
2019-02-28T16:12:04.106Z,41.33
2019-02-28T16:14:31.411Z,41.27
2019-02-28T16:17:00.261Z,42.97
2019-02-28T16:19:24.631Z,56.10
2019-02-28T16:21:50.353Z,41.07
2019-02-28T16:24:15.899Z,41.30
2019-02-28T16:26:41.433Z,42.33
2019-02-28T16:29:07.208Z,36.13
2019-02-28T16:31:32.772Z,35.40
2019-02-28T16:34:07.987Z,37.43
2019-02-28T16:36:26.601Z,47.00
2019-02-28T16:38:52.272Z,43.73
2019-02-28T16:41:17.827Z,64.13
2019-02-28T16:43:43.386Z,45.27
2019-02-28T16:46:12.441Z,62.93
2019-02-28T16:48:37.402Z,52.20
2019-02-28T16:51:03.971Z,55.53
2019-02-28T16:53:29.524Z,60.50
2019-02-28T16:55:55.319Z,47.77
2019-02-28T16:58:21.893Z,55.10
2019-02-28T17:00:48.321Z,49.50
2019-02-28T17:03:15.826Z,48.20
2019-02-28T17:05:41.414Z,38.50
2019-02-28T17:08:07.059Z,47.43
2019-02-28T17:10:33.988Z,53.57
2019-02-28T17:13:07.494Z,48.67
2019-02-28T17:15:34.927Z,70.00
2019-02-28T17:18:05.531Z,47.30
2019-02-28T17:20:31.085Z,58.60
2019-02-28T17:22:58.636Z,57.80
2019-02-28T17:25:24.099Z,43.97
2019-02-28T17:27:54.149Z,42.47
2019-02-28T17:30:24.312Z,42.73
2019-02-28T17:32:49.924Z,46.30
2019-02-28T17:35:15.600Z,43.37
2019-02-28T17:37:41.155Z,50.23
2019-02-28T17:40:08.619Z,46.87
2019-02-28T17:42:35.654Z,39.10
2019-02-28T17:45:02.221Z,43.13
2019-02-28T17:47:33.154Z,39.03
2019-02-28T17:53:07.115Z,44.30
2019-02-28T17:55:51.687Z,44.10
2019-02-28T17:58:19.124Z,38.37
2019-02-28T18:00:51.823Z,46.60
2019-02-28T18:03:18.031Z,41.10
2019-02-28T18:05:54.722Z,41.40
2019-02-28T18:08:22.173Z,43.87
2019-02-28T18:10:52.679Z,46.67
2019-02-28T18:13:35.306Z,47.80
2019-02-28T18:16:21.277Z,44.23
2019-02-28T18:18:50.191Z,44.23
2019-02-28T18:21:37.522Z,37.70
2019-02-28T18:24:06.771Z,37.27
2019-02-28T18:26:46.045Z,45.90
2019-02-28T18:29:16.480Z,39.67
2019-02-28T18:31:42.196Z,44.43
2019-02-28T18:34:07.749Z,48.57
2019-02-28T18:36:34.327Z,45.37
2019-02-28T18:38:59.883Z,34.53
2019-02-28T18:41:25.556Z,51.57
2019-02-28T18:43:51.140Z,45.63
2019-02-28T18:46:16.955Z,38.17
2019-02-28T18:48:42.735Z,37.57
2019-02-28T18:51:08.339Z,36.73
2019-02-28T18:53:34.349Z,41.87
2019-02-28T18:55:59.966Z,38.17
2019-02-28T18:58:25.555Z,49.03
2019-02-28T19:00:52.099Z,44.07
2019-02-28T19:03:17.647Z,48.67
2019-02-28T19:05:43.323Z,55.10
2019-02-28T19:08:08.899Z,60.27
2019-02-28T19:10:34.432Z,72.67
2019-02-28T19:13:00.947Z,68.67
2019-02-28T19:15:26.519Z,64.33
2019-02-28T19:17:52.177Z,64.90
2019-02-28T19:20:17.905Z,58.10
2019-02-28T19:22:43.440Z,50.43
2019-02-28T19:25:09.888Z,53.53
2019-02-28T19:27:35.829Z,44.03
2019-02-28T19:30:04.450Z,48.17
2019-02-28T19:32:30.204Z,44.30
2019-02-28T19:34:55.860Z,39.30
2019-02-28T19:37:21.482Z,58.20
2019-02-28T19:39:47.303Z,48.13
2019-02-28T19:42:13.883Z,46.80
2019-02-28T19:44:39.471Z,61.50
2019-02-28T19:47:05.061Z,43.93
2019-02-28T19:49:30.607Z,52.23
2019-02-28T19:51:56.176Z,42.80
2019-02-28T19:54:21.695Z,46.27
2019-02-28T19:56:47.433Z,44.70
2019-02-28T19:59:13.035Z,51.03
2019-02-28T20:01:38.592Z,41.80
2019-02-28T20:04:04.305Z,54.00
2019-02-28T20:06:29.836Z,43.30
2019-02-28T20:08:55.357Z,63.60
2019-02-28T20:11:21.202Z,73.43
2019-02-28T20:13:46.902Z,61.80
2019-02-28T20:16:12.666Z,45.60
2019-02-28T20:18:38.525Z,45.93
2019-02-28T20:21:05.228Z,50.27
2019-02-28T20:23:31.067Z,47.17
2019-02-28T20:25:57.105Z,50.93
2019-02-28T20:28:23.837Z,57.30
2019-02-28T20:30:50.096Z,51.90
2019-02-28T20:33:18.981Z,57.73
2019-02-28T20:35:46.848Z,63.90
2019-02-28T20:38:12.420Z,72.57
2019-02-28T20:40:41.134Z,73.00
2019-02-28T20:43:07.327Z,68.17
2019-02-28T20:45:33.384Z,76.53
2019-02-28T20:47:59.211Z,64.20
2019-02-28T20:50:32.535Z,71.73
2019-02-28T20:52:58.433Z,72.37
2019-02-28T20:55:27.701Z,61.93
2019-02-28T20:57:54.885Z,55.73
2019-02-28T21:03:01.689Z,48.97
2019-02-28T21:05:34.402Z,46.47
2019-02-28T21:08:01.238Z,44.40
2019-02-28T21:10:28.513Z,33.40
2019-02-28T21:15:44.008Z,38.57
2019-02-28T21:18:09.811Z,41.00
2019-02-28T21:20:35.910Z,38.37
2019-02-28T21:23:01.582Z,57.43
2019-02-28T21:25:29.207Z,42.17
2019-02-28T21:27:54.861Z,47.57
2019-02-28T21:30:23.950Z,48.93
2019-02-28T21:32:49.689Z,60.57
2019-02-28T21:35:16.086Z,42.10
2019-02-28T21:37:41.953Z,40.63
2019-02-28T21:40:09.087Z,38.07
2019-02-28T21:42:36.393Z,37.87
2019-02-28T21:45:03.909Z,40.67
2019-02-28T21:47:30.144Z,38.83
2019-02-28T21:49:56.572Z,40.23
2019-02-28T21:52:22.656Z,45.10
2019-02-28T21:54:48.644Z,44.50
2019-02-28T21:57:14.369Z,35.23
2019-02-28T21:59:39.903Z,32.63
2019-02-28T22:02:05.739Z,36.40
2019-02-28T22:04:31.604Z,37.67
2019-02-28T22:06:57.198Z,35.00
2019-02-28T22:09:22.828Z,40.43
2019-02-28T22:12:07.835Z,42.57
2019-02-28T22:14:33.899Z,37.00
2019-02-28T22:17:04.464Z,38.20
2019-02-28T22:19:30.461Z,44.17
2019-02-28T22:21:56.144Z,37.30
2019-02-28T22:24:21.888Z,45.30
2019-02-28T22:26:47.712Z,40.63
2019-02-28T22:29:13.353Z,44.93
2019-02-28T22:31:50.113Z,57.30
2019-02-28T22:34:18.079Z,46.80
2019-02-28T22:36:43.810Z,38.23
2019-02-28T22:39:18.171Z,40.90
2019-02-28T22:41:41.109Z,27.90
2019-02-28T22:44:07.006Z,32.37
2019-02-28T22:46:32.992Z,51.13
2019-02-28T22:48:58.705Z,37.20
2019-02-28T22:51:24.270Z,35.93
2019-02-28T22:53:49.921Z,38.50
2019-02-28T22:56:17.078Z,34.70
2019-02-28T22:58:42.968Z,41.63
2019-02-28T23:01:11.658Z,45.90
2019-02-28T23:03:38.057Z,55.13
2019-02-28T23:06:04.566Z,58.40
2019-02-28T23:08:30.426Z,38.87
2019-02-28T23:10:57.210Z,46.80
2019-02-28T23:13:23.300Z,47.50
2019-02-28T23:15:49.111Z,48.03
2019-02-28T23:18:15.061Z,41.43
2019-02-28T23:20:41.339Z,54.07
2019-02-28T23:23:07.218Z,47.00
2019-02-28T23:25:33.361Z,46.67
2019-02-28T23:28:09.562Z,45.43
2019-02-28T23:30:52.906Z,48.70
2019-02-28T23:33:18.817Z,52.90
2019-02-28T23:35:44.923Z,47.27
2019-02-28T23:38:10.554Z,36.70
2019-02-28T23:40:36.549Z,47.77
2019-02-28T23:43:02.406Z,46.13
2019-02-28T23:45:27.987Z,46.83
2019-02-28T23:47:53.577Z,41.90
2019-02-28T23:50:19.486Z,42.70
2019-02-28T23:52:45.134Z,37.77
2019-02-28T23:55:10.696Z,35.30
2019-02-28T23:57:36.946Z,45.13
